Time;durP1;ratioP1;P1;durP2;ratioP2;P2;SDS_P1;SDS_P2;PMS_P1;PMS_P2;Temp;Humidity;BMP_temperature;BMP_pressure;BME280_temperature;BME280_humidity;BME280_pressure;Samples;Min_cycle;Max_cycle;Signal;HPM_P1;HPM_P2
2022/12/18 00:00:06;;;;;;;9.07;6.90;;;;;;;-0.66;67.30;100631.63;5109172;28;20052;-72
2022/12/18 00:02:35;;;;;;;9.50;7.50;;;;;;;-2.04;67.07;100379.53;5107767;28;20043;-72
2022/12/18 00:05:01;;;;;;;11.30;8.13;;;;;;;-0.74;67.07;100608.13;5107029;28;20304;-72
2022/12/18 00:07:28;;;;;;;10.07;6.80;;;;;;;-0.71;67.31;101030.81;5108397;28;20107;-72
2022/12/18 00:09:55;;;;;;;8.15;6.85;;;;;;;-0.71;67.33;100618.56;5107845;28;20040;-72
2022/12/18 00:12:21;;;;;;;13.25;8.48;;;;;;;-3.20;67.18;100219.72;5106640;28;20047;-71
2022/12/18 00:14:48;;;;;;;10.85;8.50;;;;;;;-2.12;67.50;100383.75;5108019;28;20089;-72
2022/12/18 00:17:15;;;;;;;11.55;8.73;;;;;;;-0.72;67.60;100629.84;5108211;28;20040;-72
2022/12/18 00:19:43;;;;;;;9.75;8.40;;;;;;;-0.74;67.58;100634.16;5091213;28;20040;-72
2022/12/18 00:22:10;;;;;;;11.40;8.45;;;;;;;-0.75;67.63;100637.63;5107215;28;20051;-70
2022/12/18 00:24:37;;;;;;;10.77;7.95;;;;;;;-1.90;67.41;100439.44;5107538;28;20040;-73
2022/12/18 00:27:05;;;;;;;11.10;7.97;;;;;;;-0.77;67.71;100631.53;5090632;28;20036;-73
2022/12/18 00:29:32;;;;;;;10.35;7.20;;;;;;;-0.79;67.58;100631.50;5108867;28;20068;-72
2022/12/18 00:31:58;;;;;;;12.13;8.23;;;;;;;-0.79;67.49;100630.63;5111670;28;20276;-72
2022/12/18 00:34:25;;;;;;;11.13;8.70;;;;;;;-0.82;67.59;100631.47;5111688;28;20048;-72
2022/12/18 00:36:53;;;;;;;8.50;7.40;;;;;;;-2.09;67.42;100434.03;5110405;28;20036;-72
2022/12/18 00:39:20;;;;;;;11.20;7.47;;;;;;;-2.71;67.58;100331.94;5111651;28;20044;-71
2022/12/18 00:44:31;;;;;;;11.82;8.73;;;;;;;-0.90;67.68;100651.34;5111458;28;20040;-72
2022/12/18 00:46:58;;;;;;;9.52;6.95;;;;;;;-1.97;67.32;100462.75;5110402;28;20043;-72
2022/12/18 00:49:25;;;;;;;10.80;7.65;;;;;;;-0.93;67.54;100653.03;5110799;28;20040;-72
2022/12/18 00:51:54;;;;;;;9.82;7.50;;;;;;;-0.95;67.34;100655.63;5111565;28;20058;-72
2022/12/18 00:54:21;;;;;;;9.38;7.60;;;;;;;-0.96;67.52;100656.47;5109034;28;20050;-72
2022/12/18 00:56:49;;;;;;;18.73;9.00;;;;;;;-0.96;67.54;100650.38;5111059;28;20098;-72
2022/12/18 00:59:15;;;;;;;11.07;7.72;;;;;;;-0.99;67.34;100659.03;5111576;28;20040;-71
2022/12/18 01:01:42;;;;;;;9.93;7.65;;;;;;;-4.07;67.13;100132.88;5110755;28;20196;-71
2022/12/18 01:04:09;;;;;;;10.07;7.30;;;;;;;-4.55;67.11;100321.78;5111041;28;20047;-71
2022/12/18 01:06:36;;;;;;;11.57;8.20;;;;;;;-1.83;67.30;100530.50;5110655;28;20051;-72
2022/12/18 01:09:04;;;;;;;9.18;7.03;;;;;;;-1.06;67.35;100678.88;5094382;28;20042;-72
2022/12/18 01:11:35;;;;;;;9.82;7.70;;;;;;;-1.09;67.30;100673.63;5110304;28;20036;-71
2022/12/18 01:14:02;;;;;;;10.85;8.40;;;;;;;-2.18;67.21;100498.84;5110861;28;20040;-72
2022/12/18 01:16:28;;;;;;;13.82;7.68;;;;;;;-1.14;67.31;100683.09;5110908;28;20047;-71
2022/12/18 01:18:55;;;;;;;10.18;7.35;;;;;;;-1.16;67.21;100690.00;5110080;28;20044;-71
2022/12/18 01:21:23;;;;;;;10.23;8.25;;;;;;;-2.97;67.30;100375.66;5110172;28;20062;-72
2022/12/18 01:23:55;;;;;;;10.48;8.43;;;;;;;-2.39;66.86;100483.81;5110030;28;20056;-71
2022/12/18 01:26:25;;;;;;;10.13;7.63;;;;;;;-6.79;66.99;99895.94;5110633;28;20043;-72
2022/12/18 01:28:52;;;;;;;12.35;8.70;;;;;;;-1.22;67.51;100683.84;5110462;28;20113;-72
2022/12/18 01:31:23;;;;;;;10.68;8.75;;;;;;;-1.24;67.43;100686.44;5110389;28;20129;-72
2022/12/18 01:33:56;;;;;;;13.82;9.45;;;;;;;-7.03;66.71;99695.31;5093991;28;20043;-72
2022/12/18 01:36:24;;;;;;;12.90;9.82;;;;;;;-11.38;66.71;99010.03;5111248;28;20056;-72
2022/12/18 01:38:53;;;;;;;14.52;9.82;;;;;;;-1.28;67.29;100915.25;5112234;28;20054;-71
2022/12/18 01:41:22;;;;;;;14.30;10.90;;;;;;;-2.70;67.24;100453.03;5111712;28;20066;-72
2022/12/18 01:43:53;;;;;;;18.17;11.98;;;;;;;-1.31;67.35;100700.19;5093753;28;20039;-72
2022/12/18 01:46:22;;;;;;;15.35;9.70;;;;;;;-1.32;67.46;100698.44;5109654;28;20358;-72
2022/12/18 01:48:53;;;;;;;15.60;11.77;;;;;;;-2.06;67.46;100579.53;5110559;28;20089;-73
2022/12/18 01:51:20;;;;;;;15.23;11.13;;;;;;;-1.36;67.46;100701.88;5108861;28;20044;-73
2022/12/18 01:53:48;;;;;;;16.13;11.63;;;;;;;-1.38;67.46;100708.78;5108644;28;20040;-73
2022/12/18 01:56:17;;;;;;;15.38;11.05;;;;;;;-3.31;67.29;100379.44;5108787;28;20047;-74
2022/12/18 01:58:51;;;;;;;16.98;11.98;;;;;;;-1.61;67.29;100677.22;5109561;28;20044;-73
2022/12/18 02:01:21;;;;;;;15.15;11.20;;;;;;;-1.45;67.57;100702.59;5091805;28;20050;-73
2022/12/18 02:03:48;;;;;;;16.67;11.50;;;;;;;-1.47;67.51;100708.63;5108635;28;20044;-73
2022/12/18 02:06:20;;;;;;;16.63;11.82;;;;;;;-1.49;67.67;100710.34;5108684;28;20036;-73
2022/12/18 02:08:59;;;;;;;19.75;12.85;;;;;;;-1.51;67.49;100704.25;5109232;28;20044;-72
2022/12/18 02:11:39;;;;;;;17.27;11.55;;;;;;;-1.53;66.92;100716.34;5108897;28;20052;-73
2022/12/18 02:14:17;;;;;;;19.65;12.48;;;;;;;-1.56;67.37;100719.78;5108126;28;20230;-73
2022/12/18 02:16:53;;;;;;;17.55;12.40;;;;;;;-1.99;67.20;100643.72;5107774;28;20300;-73
2022/12/18 02:19:45;;;;;;;18.70;12.18;;;;;;;-1.59;66.88;100722.31;5109272;28;20296;-73
2022/12/18 02:22:27;;;;;;;15.98;11.68;;;;;;;-2.94;67.18;100489.84;5107832;28;20040;-73
2022/12/18 02:25:06;;;;;;;18.67;13.65;;;;;;;-1.64;67.38;100723.97;5108965;28;20044;-73
2022/12/18 02:27:38;;;;;;;18.98;13.50;;;;;;;-1.67;67.64;100727.41;5108430;28;20044;-73
2022/12/18 02:30:08;;;;;;;20.85;12.50;;;;;;;-3.43;67.56;100444.88;5109485;28;20066;-72
2022/12/18 02:32:39;;;;;;;18.05;12.07;;;;;;;-2.41;67.57;100602.34;5109527;28;20409;-73
2022/12/18 02:35:13;;;;;;;19.55;12.15;;;;;;;-6.13;67.14;99967.06;5108913;28;20047;-72
2022/12/18 02:37:43;;;;;;;17.97;12.97;;;;;;;-1.68;67.77;100724.78;5108677;28;20090;-72
2022/12/18 02:40:12;;;;;;;17.40;12.93;;;;;;;-1.69;67.78;100739.50;5091995;28;20046;-72
2022/12/18 02:42:40;;;;;;;18.55;12.80;;;;;;;-3.41;67.48;100445.78;5108969;28;20040;-72
2022/12/18 02:45:08;;;;;;;19.50;12.30;;;;;;;-1.73;67.90;100734.22;5109143;28;20055;-72
2022/12/18 02:47:39;;;;;;;20.55;12.93;;;;;;;-1.75;67.90;100738.53;5108528;28;20051;-73
2022/12/18 02:50:14;;;;;;;17.65;13.40;;;;;;;-1.76;67.86;100741.97;5109363;28;20054;-73
2022/12/18 02:52:54;;;;;;;19.52;12.10;;;;;;;-2.90;67.50;100542.66;5108233;28;20101;-72
2022/12/18 02:55:35;;;;;;;20.25;12.80;;;;;;;-1.78;67.58;100746.28;5091554;28;20039;-72
2022/12/18 02:58:09;;;;;;;19.63;12.57;;;;;;;-2.63;67.50;100611.47;5109135;28;20295;-72
2022/12/18 03:00:41;;;;;;;19.63;13.05;;;;;;;-1.82;67.53;100754.88;5108524;28;20031;-72
2022/12/18 03:03:14;;;;;;;17.73;12.05;;;;;;;-2.51;67.87;100648.88;5091174;28;20040;-72
2022/12/18 03:05:46;;;;;;;19.10;11.65;;;;;;;-1.84;67.85;100765.22;5090988;28;20119;-73
2022/12/18 03:08:18;;;;;;;18.88;13.27;;;;;;;-2.61;67.93;100624.47;5108231;28;20050;-73
2022/12/18 03:10:53;;;;;;;20.15;13.63;;;;;;;-7.35;67.24;99814.81;5108470;28;20043;-73
2022/12/18 03:13:27;;;;;;;18.30;11.40;;;;;;;-1.87;67.92;100764.31;5108238;28;20047;-72
2022/12/18 03:15:57;;;;;;;18.88;12.52;;;;;;;-1.89;67.91;100761.69;5109010;28;20044;-73
2022/12/18 03:18:28;;;;;;;18.88;12.73;;;;;;;-5.08;67.66;100669.59;5108368;28;20192;-73
2022/12/18 03:21:00;;;;;;;16.60;12.43;;;;;;;-1.92;67.94;100756.44;5108323;28;20028;-72
2022/12/18 03:23:33;;;;;;;16.02;11.38;;;;;;;-1.92;67.91;100755.56;5107962;28;20094;-72
2022/12/18 03:26:06;;;;;;;18.05;11.57;;;;;;;-1.92;68.14;100765.94;5107883;28;20044;-72
2022/12/18 03:28:38;;;;;;;18.73;11.85;;;;;;;-1.98;67.89;100785.78;5108557;28;20031;-73
2022/12/18 03:31:09;;;;;;;19.50;13.32;;;;;;;-2.00;68.01;100760.63;5108422;28;20367;-73
2022/12/18 03:33:40;;;;;;;21.33;13.45;;;;;;;-10.01;67.32;99380.72;5108488;28;20048;-72
2022/12/18 03:36:08;;;;;;;18.98;12.60;;;;;;;-4.58;68.22;100316.56;5108132;28;20207;-73
2022/12/18 03:38:35;;;;;;;19.98;12.68;;;;;;;-3.15;68.18;100629.50;5108775;28;20040;-73
2022/12/18 03:41:14;;;;;;;17.77;12.65;;;;;;;-2.08;68.04;100760.47;5108701;28;20059;-73
2022/12/18 03:43:50;;;;;;;17.13;11.95;;;;;;;-2.09;68.08;100765.66;5107085;28;20040;-73
2022/12/18 03:46:25;;;;;;;19.30;12.45;;;;;;;-2.82;68.14;100639.66;5108220;28;20048;-73
2022/12/18 03:48:58;;;;;;;20.02;13.10;;;;;;;-2.08;68.06;100772.59;5108731;28;20036;-73
2022/12/18 03:51:31;;;;;;;23.25;14.93;;;;;;;-2.12;68.14;100809.75;5107937;28;20130;-73
2022/12/18 03:54:01;;;;;;;17.85;12.55;;;;;;;-2.15;68.02;100781.13;5108109;28;20102;-73
2022/12/18 03:56:30;;;;;;;18.65;12.75;;;;;;;-5.93;67.68;100123.22;5108439;28;20242;-73
2022/12/18 03:59:03;;;;;;;19.70;13.52;;;;;;;-8.90;67.62;99616.28;5108266;28;20056;-73
2022/12/18 04:01:35;;;;;;;20.13;13.27;;;;;;;-2.19;68.02;100787.09;5108184;28;20044;-73
2022/12/18 04:04:04;;;;;;;21.77;12.85;;;;;;;-2.20;68.01;100794.03;5110698;28;20055;-73
2022/12/18 04:06:32;;;;;;;18.75;12.80;;;;;;;-2.19;68.02;100790.56;5110281;28;20051;-72
2022/12/18 04:08:59;;;;;;;19.90;14.35;;;;;;;-2.65;67.95;100711.78;5111203;28;20036;-73
2022/12/18 04:11:26;;;;;;;20.02;13.80;;;;;;;-2.21;68.21;100796.59;5110789;28;20284;-72
2022/12/18 04:13:56;;;;;;;18.05;12.75;;;;;;;-2.24;67.99;100804.31;5112208;28;20056;-73
2022/12/18 04:16:24;;;;;;;19.60;12.10;;;;;;;-2.26;68.38;100801.69;5111440;28;20043;-73
2022/12/18 04:18:51;;;;;;;19.05;12.85;;;;;;;-2.26;68.42;100800.81;5110373;28;20043;-75
2022/12/18 04:21:19;;;;;;;18.70;13.27;;;;;;;-2.24;68.08;100804.31;5111122;28;20051;-73
2022/12/18 04:23:45;;;;;;;15.60;10.38;;;;;;;-2.28;68.22;100821.56;5112113;28;20040;-72
2022/12/18 04:26:12;;;;;;;20.27;14.02;;;;;;;-4.27;67.71;100473.34;5110607;28;20054;-73
2022/12/18 04:28:39;;;;;;;18.15;12.32;;;;;;;-2.30;68.07;100812.88;5111435;28;20052;-73
2022/12/18 04:31:07;;;;;;;19.90;13.55;;;;;;;-2.33;68.23;100810.22;5110851;28;20040;-73
2022/12/18 04:33:36;;;;;;;18.73;12.52;;;;;;;-2.35;68.37;100819.69;5110853;28;20048;-73
2022/12/18 04:36:03;;;;;;;18.45;12.82;;;;;;;-2.37;68.09;100822.25;5110074;28;20156;-72
2022/12/18 04:38:30;;;;;;;20.17;13.73;;;;;;;-2.41;68.18;100817.84;5111194;28;20048;-73
2022/12/18 04:40:57;;;;;;;21.33;13.48;;;;;;;-2.41;68.47;100825.63;5110505;28;20040;-73
2022/12/18 04:43:23;;;;;;;20.17;12.73;;;;;;;-2.41;68.19;100830.81;5110970;28;20235;-74
2022/12/18 04:45:50;;;;;;;19.52;12.32;;;;;;;-2.40;68.35;100826.50;5110205;28;20361;-73
2022/12/18 04:48:17;;;;;;;19.27;13.85;;;;;;;-2.41;68.02;100828.22;5109916;28;20040;-73
2022/12/18 04:50:45;;;;;;;20.15;13.70;;;;;;;-3.87;68.00;100575.22;5109422;28;20065;-73
2022/12/18 04:53:12;;;;;;;21.65;15.00;;;;;;;-2.43;68.11;100829.91;5109846;28;20047;-73
2022/12/18 04:55:39;;;;;;;19.65;12.55;;;;;;;-2.43;68.18;100835.09;5109926;28;20086;-74
2022/12/18 04:58:06;;;;;;;20.50;14.38;;;;;;;-2.45;68.21;100844.59;5109625;28;20051;-73
2022/12/18 05:00:32;;;;;;;20.33;14.35;;;;;;;-2.46;68.20;100847.16;5110028;28;20048;-74
2022/12/18 05:03:01;;;;;;;20.88;13.77;;;;;;;-2.50;68.24;100846.22;5109797;28;20226;-73
2022/12/18 05:05:28;;;;;;;19.25;13.23;;;;;;;-2.50;68.15;100853.13;5109690;28;20039;-73
2022/12/18 05:07:56;;;;;;;20.25;13.73;;;;;;;-2.53;68.22;100851.34;5110087;28;20044;-74
2022/12/18 05:10:23;;;;;;;20.70;13.60;;;;;;;-3.15;68.48;100779.91;5108431;28;20047;-73
2022/12/18 05:12:59;;;;;;;23.58;13.82;;;;;;;-2.54;68.41;100864.28;5109957;28;20047;-74
2022/12/18 05:15:28;;;;;;;18.77;11.15;;;;;;;-2.60;68.58;100859.84;5109323;28;20229;-74
2022/12/18 05:17:54;;;;;;;17.10;11.07;;;;;;;-2.62;68.56;100871.91;5110360;28;20048;-73
2022/12/18 05:20:21;;;;;;;18.40;12.15;;;;;;;-2.62;68.72;100871.91;5110601;28;20040;-73
2022/12/18 05:22:48;;;;;;;18.48;11.65;;;;;;;-2.66;68.76;100867.50;5110053;28;20288;-73
2022/12/18 05:25:16;;;;;;;19.02;12.48;;;;;;;-2.64;68.58;100873.59;5108339;28;20055;-73
2022/12/18 05:27:43;;;;;;;19.20;13.30;;;;;;;-2.67;68.70;100869.22;5108590;28;20040;-73
2022/12/18 05:30:11;;;;;;;18.85;13.82;;;;;;;-2.81;68.75;100836.88;5108314;28;20324;-73
2022/12/18 05:32:38;;;;;;;18.58;13.13;;;;;;;-2.90;68.72;100830.63;5108237;28;20109;-73
2022/12/18 05:35:07;;;;;;;17.42;12.00;;;;;;;-2.72;68.95;100872.53;5109079;28;20044;-73
2022/12/18 05:37:33;;;;;;;15.30;11.00;;;;;;;-2.77;68.75;100876.75;5109025;28;20048;-74
2022/12/18 05:40:00;;;;;;;18.40;12.73;;;;;;;-2.77;69.01;100881.94;5108716;28;20276;-73
2022/12/18 05:42:29;;;;;;;17.40;11.80;;;;;;;-2.95;68.89;100851.25;5108732;28;20293;-74
2022/12/18 05:44:55;;;;;;;17.35;12.10;;;;;;;-2.77;68.83;100876.75;5108843;28;20101;-74
2022/12/18 05:47:22;;;;;;;17.83;12.07;;;;;;;-2.79;68.98;100883.63;5108748;28;20056;-73
2022/12/18 05:49:49;;;;;;;18.13;11.48;;;;;;;-2.81;69.07;100870.63;5107841;28;20044;-73
2022/12/18 05:52:16;;;;;;;18.00;14.05;;;;;;;-2.80;68.82;100879.28;5108487;28;20189;-73
2022/12/18 05:54:43;;;;;;;18.50;11.98;;;;;;;-2.83;69.15;100879.22;5108599;28;20056;-73
2022/12/18 05:57:10;;;;;;;18.10;13.15;;;;;;;-2.86;68.93;100873.94;5108133;28;20051;-73
2022/12/18 05:59:38;;;;;;;20.95;13.35;;;;;;;-2.87;69.20;100870.47;5107144;28;20039;-73
2022/12/18 06:02:05;;;;;;;20.95;13.85;;;;;;;-2.87;69.14;100877.38;5108457;28;20048;-73
2022/12/18 06:04:32;;;;;;;16.55;12.43;;;;;;;-3.24;69.21;100819.47;5090452;28;20036;-73
2022/12/18 06:07:00;;;;;;;18.95;12.27;;;;;;;-2.80;69.09;100887.06;5107951;28;20040;-74
2022/12/18 06:09:27;;;;;;;19.75;12.50;;;;;;;-2.81;68.89;100895.69;5106809;28;20039;-73
2022/12/18 06:11:53;;;;;;;23.52;14.50;;;;;;;-2.81;69.06;100900.88;5107428;28;20052;-73
2022/12/18 06:14:20;;;;;;;17.60;13.68;;;;;;;-2.81;68.92;100901.75;5107225;28;20040;-73
2022/12/18 06:16:51;;;;;;;17.77;13.13;;;;;;;-2.84;68.83;100906.00;5108321;28;20039;-74
2022/12/18 06:19:19;;;;;;;20.13;12.85;;;;;;;-3.46;68.78;100812.00;5107851;28;20048;-73
2022/12/18 06:21:46;;;;;;;19.08;13.07;;;;;;;-2.84;68.81;100914.66;5106906;28;20077;-73
2022/12/18 06:24:13;;;;;;;21.83;13.35;;;;;;;-2.85;68.65;100914.63;5108081;28;20054;-73
2022/12/18 06:26:40;;;;;;;21.42;15.05;;;;;;;-2.90;68.94;100908.44;5107603;28;20063;-73
2022/12/18 06:29:07;;;;;;;21.42;13.60;;;;;;;-3.21;68.86;100865.34;5108212;28;20056;-73
2022/12/18 06:31:34;;;;;;;20.10;13.40;;;;;;;-2.89;68.97;100921.44;5106919;28;20292;-73
2022/12/18 06:34:04;;;;;;;23.48;13.90;;;;;;;-3.30;68.76;100845.25;5108036;28;20051;-73
2022/12/18 06:36:31;;;;;;;20.27;14.85;;;;;;;-2.87;68.86;100922.38;5107016;28;20048;-73
2022/12/18 06:38:58;;;;;;;20.83;13.75;;;;;;;-2.90;68.84;100922.28;5107193;28;20085;-73
2022/12/18 06:41:25;;;;;;;22.77;14.52;;;;;;;-2.91;68.89;100920.53;5107235;28;20040;-74
2022/12/18 06:43:52;;;;;;;20.48;12.90;;;;;;;-3.05;68.90;100920.22;5090222;28;20040;-73
2022/12/18 06:46:19;;;;;;;23.98;14.45;;;;;;;-2.91;68.90;100927.44;5107892;28;20048;-73
2022/12/18 06:48:48;;;;;;;25.48;14.80;;;;;;;-3.56;68.98;100825.56;5106995;28;20050;-73
2022/12/18 06:51:19;;;;;;;21.10;14.73;;;;;;;-2.91;69.01;100930.91;5107603;28;20038;-73
2022/12/18 06:53:46;;;;;;;23.27;14.15;;;;;;;-3.92;69.00;100774.53;5107736;28;20051;-73
2022/12/18 06:56:13;;;;;;;24.27;14.88;;;;;;;-2.91;69.18;100936.09;5106820;28;20036;-73
2022/12/18 06:58:40;;;;;;;25.65;16.92;;;;;;;-2.93;69.02;100965.44;5089760;28;20035;-73
2022/12/18 07:01:10;;;;;;;24.63;15.32;;;;;;;-2.94;69.27;100956.78;5106553;28;20062;-73
2022/12/18 07:03:37;;;;;;;25.20;16.67;;;;;;;-2.95;69.21;100955.91;5106168;28;20055;-73
2022/12/18 07:06:04;;;;;;;25.00;16.20;;;;;;;-3.27;69.24;100917.91;5106542;28;20047;-73
2022/12/18 07:08:33;;;;;;;22.45;15.48;;;;;;;-2.95;69.33;100976.66;5107027;28;20054;-73
2022/12/18 07:11:00;;;;;;;23.83;15.38;;;;;;;-2.97;69.20;100961.91;5107533;28;20320;-73
2022/12/18 07:13:27;;;;;;;24.80;15.43;;;;;;;-2.97;69.38;100961.91;5090396;28;20040;-73
2022/12/18 07:15:54;;;;;;;28.63;17.00;;;;;;;-2.96;69.22;100972.31;5106753;28;20048;-74
2022/12/18 07:18:21;;;;;;;26.83;16.65;;;;;;;-2.96;69.22;100971.44;5107347;28;20044;-73
2022/12/18 07:20:47;;;;;;;24.10;14.77;;;;;;;-2.99;69.38;100968.75;5107491;28;20097;-73
2022/12/18 07:23:14;;;;;;;24.83;15.48;;;;;;;-3.52;69.37;100882.72;5107761;28;20214;-73
2022/12/18 07:25:42;;;;;;;23.33;15.23;;;;;;;-2.96;69.49;100987.00;5107614;28;20048;-73
2022/12/18 07:28:09;;;;;;;25.90;15.07;;;;;;;-2.96;69.27;100992.19;5107258;28;20304;-73
2022/12/18 07:30:38;;;;;;;22.02;14.77;;;;;;;-2.94;69.62;101019.06;5107128;28;20089;-73
2022/12/18 07:33:05;;;;;;;24.27;16.20;;;;;;;-3.22;69.54;100946.56;5106799;28;20058;-73
2022/12/18 07:35:31;;;;;;;24.25;16.85;;;;;;;-2.97;69.47;101001.69;5106833;28;20040;-73
2022/12/18 07:37:58;;;;;;;21.38;14.98;;;;;;;-2.97;69.55;101004.28;5107170;28;20044;-73
2022/12/18 07:40:25;;;;;;;22.35;15.07;;;;;;;-2.93;69.73;101001.78;5110611;28;20055;-73
2022/12/18 07:42:53;;;;;;;25.63;15.95;;;;;;;-2.90;69.70;101001.84;5110708;28;20043;-73
2022/12/18 07:45:20;;;;;;;24.92;15.80;;;;;;;-2.89;69.52;101009.66;5111347;28;20039;-73
2022/12/18 07:47:47;;;;;;;25.25;16.83;;;;;;;-2.86;69.67;101040.88;5111358;28;20039;-73
2022/12/18 07:50:14;;;;;;;25.23;16.40;;;;;;;-2.82;69.60;101010.69;5110807;28;20043;-73
2022/12/18 07:52:41;;;;;;;26.13;17.05;;;;;;;-3.30;69.72;100928.22;5110661;28;20055;-73
2022/12/18 07:55:09;;;;;;;23.63;15.82;;;;;;;-4.07;69.46;100785.38;5110883;28;20039;-73
2022/12/18 07:57:35;;;;;;;25.02;15.98;;;;;;;-2.58;69.55;101023.41;5093727;28;20196;-73
2022/12/18 08:00:05;;;;;;;24.88;16.17;;;;;;;-2.49;69.41;101029.69;5110243;28;20048;-73
2022/12/18 08:02:32;;;;;;;25.10;15.57;;;;;;;-2.40;69.30;101036.81;5093501;28;20098;-73
2022/12/18 08:04:59;;;;;;;26.30;17.52;;;;;;;-2.32;69.22;101035.28;5109805;28;20046;-73
2022/12/18 08:07:26;;;;;;;26.17;16.38;;;;;;;-2.26;68.97;101037.16;5110104;28;20059;-73
2022/12/18 08:09:52;;;;;;;25.88;15.90;;;;;;;-2.18;68.89;101046.00;5109913;28;20036;-73
2022/12/18 08:12:19;;;;;;;25.17;16.90;;;;;;;-2.09;68.68;101036.69;5109779;28;20039;-73
2022/12/18 08:14:46;;;;;;;25.23;16.67;;;;;;;-2.01;68.73;101026.47;5109557;28;20036;-73
2022/12/18 08:17:14;;;;;;;25.35;17.33;;;;;;;-2.32;68.51;100966.03;5110608;28;20044;-73
2022/12/18 08:19:41;;;;;;;27.08;17.05;;;;;;;-1.86;68.33;101044.13;5110702;28;20065;-73
2022/12/18 08:22:08;;;;;;;26.13;18.48;;;;;;;-1.82;68.25;101046.81;5110380;28;20280;-73
2022/12/18 08:24:34;;;;;;;25.15;16.83;;;;;;;-1.78;68.21;101037.38;5092776;28;20039;-73
2022/12/18 08:27:01;;;;;;;26.80;15.82;;;;;;;-1.78;67.98;101037.38;5110211;28;20044;-73
2022/12/18 08:29:28;;;;;;;28.50;18.98;;;;;;;-1.99;68.53;101010.06;5109410;28;20307;-73
2022/12/18 08:31:54;;;;;;;26.60;18.60;;;;;;;-1.77;68.70;101039.13;5110467;28;20105;-73
2022/12/18 08:34:23;;;;;;;26.85;18.30;;;;;;;-1.76;68.18;101036.56;5108730;28;20040;-72
2022/12/18 08:36:49;;;;;;;24.45;16.42;;;;;;;-1.76;68.22;101038.28;5108652;28;20097;-73
2022/12/18 08:39:16;;;;;;;27.33;17.55;;;;;;;-1.97;67.96;101003.19;5109437;28;20112;-73
2022/12/18 08:44:36;;;;;;;28.67;17.10;;;;;;;-1.74;67.73;101044.38;5110052;28;20051;-73
2022/12/18 08:44:38;;;;;;;27.40;17.60;;;;;;;-3.07;67.73;100825.91;5109291;28;20117;-73
2022/12/18 08:47:05;;;;;;;;;;;;;;;-1.81;66.79;101053.78;5109793;28;20047;-73
2022/12/18 08:49:34;;;;;;;27.08;17.52;;;;;;;-1.80;67.83;101047.72;5108891;28;19920;-73
2022/12/18 08:52:01;;;;;;;28.65;18.67;;;;;;;-1.80;67.98;101045.13;5091630;28;20040;-73
2022/12/18 08:54:28;;;;;;;28.10;19.83;;;;;;;-1.80;67.69;101058.13;5108174;28;20073;-72
2022/12/18 08:56:55;;;;;;;28.73;18.95;;;;;;;-1.78;67.81;101059.03;5108607;28;20105;-73
2022/12/18 08:59:23;;;;;;;27.33;17.83;;;;;;;-1.81;67.86;101058.97;5109218;28;20083;-73
2022/12/18 09:01:50;;;;;;;33.00;20.20;;;;;;;-2.49;67.94;100941.44;5109263;28;20264;-73
2022/12/18 09:04:17;;;;;;;31.52;19.73;;;;;;;-2.45;67.92;100963.13;5109048;28;20093;-74
2022/12/18 09:06:45;;;;;;;30.10;18.75;;;;;;;-1.82;67.88;101062.41;5107731;28;20039;-73
2022/12/18 09:09:12;;;;;;;30.85;20.42;;;;;;;-1.82;67.98;101061.53;5107877;28;20043;-73
2022/12/18 09:11:39;;;;;;;30.98;20.08;;;;;;;-2.15;67.64;101015.78;5091449;28;20051;-73
2022/12/18 09:14:06;;;;;;;30.08;19.83;;;;;;;-1.89;68.02;101068.31;5107731;28;20040;-72
2022/12/18 09:16:34;;;;;;;34.13;20.52;;;;;;;-1.89;67.92;101070.03;5108545;28;20089;-73
2022/12/18 09:19:02;;;;;;;28.45;19.20;;;;;;;-1.83;68.00;101077.97;5107574;28;20040;-73
2022/12/18 09:21:31;;;;;;;35.35;21.00;;;;;;;-2.61;67.82;100933.34;5108473;28;20040;-73
2022/12/18 09:24:00;;;;;;;29.85;19.15;;;;;;;-1.86;68.07;101068.41;5108991;28;20048;-73
2022/12/18 09:26:28;;;;;;;30.75;20.33;;;;;;;-1.84;67.89;101065.81;5107847;28;20040;-73
2022/12/18 09:28:55;;;;;;;32.05;20.55;;;;;;;-1.82;68.09;101069.34;5108682;28;20070;-73
2022/12/18 09:31:24;;;;;;;31.10;20.27;;;;;;;-1.82;67.95;101078.00;5109256;28;20119;-73
2022/12/18 09:33:51;;;;;;;32.83;21.02;;;;;;;-1.80;67.79;101059.84;5108708;28;20219;-73
2022/12/18 09:36:19;;;;;;;28.77;19.40;;;;;;;-3.43;67.47;100812.09;5107125;28;20106;-73
2022/12/18 09:38:47;;;;;;;35.17;20.92;;;;;;;-2.90;67.96;100874.72;5106987;28;20036;-73
2022/12/18 09:41:38;;;;;;;32.33;19.67;;;;;;;-1.89;67.52;101055.34;5107228;28;20181;-73
2022/12/18 09:44:14;;;;;;;32.75;19.88;;;;;;;-1.93;67.57;101076.91;5107080;28;20044;-73
2022/12/18 09:46:47;;;;;;;31.40;19.80;;;;;;;-3.09;67.31;100907.13;5106857;28;20040;-73
2022/12/18 09:49:17;;;;;;;31.80;19.85;;;;;;;-1.90;67.79;101065.69;5106781;28;20044;-73
2022/12/18 09:51:48;;;;;;;33.78;21.60;;;;;;;-1.90;67.58;101061.38;5108144;28;20047;-73
2022/12/18 09:54:21;;;;;;;32.53;18.90;;;;;;;-2.52;67.20;100958.66;5107397;28;20040;-73
2022/12/18 09:56:50;;;;;;;34.75;20.98;;;;;;;-1.94;67.58;101061.28;5107925;28;20050;-73
2022/12/18 09:59:24;;;;;;;27.63;19.60;;;;;;;-1.92;67.38;101044.88;5108051;28;20048;-73
2022/12/18 10:01:51;;;;;;;29.23;19.52;;;;;;;-1.93;67.64;101068.22;5106441;28;20047;-73
2022/12/18 10:04:18;;;;;;;27.77;18.67;;;;;;;-1.93;67.59;101053.50;5107549;28;20052;-73
2022/12/18 10:06:53;;;;;;;33.95;19.30;;;;;;;-1.92;67.23;101055.25;5107869;28;20035;-73
2022/12/18 10:09:29;;;;;;;26.92;17.95;;;;;;;-2.39;67.26;100973.66;5106861;28;20044;-73
2022/12/18 10:12:09;;;;;;;31.42;18.25;;;;;;;-2.17;66.35;101050.34;5106879;28;20067;-72
2022/12/18 10:14:44;;;;;;;30.52;18.90;;;;;;;-2.08;67.05;101047.97;5107235;28;20255;-72
2022/12/18 10:17:20;;;;;;;26.75;18.60;;;;;;;-2.07;67.32;101048.00;5107394;28;20089;-73
2022/12/18 10:19:53;;;;;;;28.02;17.85;;;;;;;-2.26;67.05;100998.19;5106850;28;20039;-73
2022/12/18 10:22:32;;;;;;;27.08;18.10;;;;;;;-2.02;66.99;101048.09;5107020;28;20048;-73
2022/12/18 10:25:06;;;;;;;27.58;17.85;;;;;;;-2.88;67.13;100902.44;5106305;28;20044;-73
2022/12/18 10:27:34;;;;;;;28.77;18.98;;;;;;;-2.02;67.28;101041.19;5106858;28;20346;-73
2022/12/18 10:30:05;;;;;;;33.17;20.50;;;;;;;-1.99;67.21;101035.19;5106740;28;20109;-73
2022/12/18 10:32:33;;;;;;;31.17;18.55;;;;;;;-1.98;67.12;101047.34;5106050;28;20242;-73
2022/12/18 10:35:00;;;;;;;26.23;17.95;;;;;;;-2.85;66.95;100889.56;5107096;28;20065;-73
2022/12/18 10:37:29;;;;;;;29.75;19.13;;;;;;;-1.97;67.00;101049.09;5106988;28;20048;-74
2022/12/18 10:40:14;;;;;;;31.77;20.00;;;;;;;-2.00;66.11;101041.22;5106584;28;20044;-73
2022/12/18 10:42:44;;;;;;;32.40;19.67;;;;;;;-2.06;66.70;101036.75;5106644;28;20254;-73
2022/12/18 10:45:14;;;;;;;30.75;21.20;;;;;;;-2.11;66.81;101038.38;5105681;28;20048;-73
2022/12/18 10:47:47;;;;;;;30.45;18.63;;;;;;;-2.11;66.86;101042.69;5105893;28;20039;-74
2022/12/18 10:50:27;;;;;;;27.80;18.52;;;;;;;-2.10;66.54;101040.13;5106759;28;20370;-73
2022/12/18 10:52:56;;;;;;;30.05;19.50;;;;;;;-2.10;67.09;101027.16;5106565;28;20074;-74
2022/12/18 10:55:24;;;;;;;30.80;19.30;;;;;;;-2.07;66.83;101029.81;5088871;28;20101;-73
2022/12/18 10:57:53;;;;;;;29.75;18.85;;;;;;;-2.08;67.28;101020.25;5106688;28;20048;-73
2022/12/18 11:00:29;;;;;;;35.35;20.92;;;;;;;-2.07;67.05;101015.94;5106623;28;20040;-73
2022/12/18 11:02:56;;;;;;;29.67;19.10;;;;;;;-2.01;67.13;101026.47;5106574;28;20251;-73
2022/12/18 11:05:29;;;;;;;33.58;20.80;;;;;;;-2.01;66.99;101016.09;5105882;28;20039;-73
2022/12/18 11:07:57;;;;;;;34.05;18.75;;;;;;;-2.62;67.28;100934.19;5107087;28;20268;-73
2022/12/18 11:10:29;;;;;;;27.95;18.55;;;;;;;-2.00;66.94;101021.31;5106425;28;20048;-74
2022/12/18 11:13:16;;;;;;;34.35;20.08;;;;;;;-2.05;66.32;101015.13;5105327;28;20085;-73
2022/12/18 11:15:43;;;;;;;31.50;20.63;;;;;;;-2.06;67.17;101022.91;5105766;28;20035;-74
2022/12/18 11:18:19;;;;;;;30.85;18.85;;;;;;;-2.03;66.56;101017.78;5105607;28;20044;-73
2022/12/18 11:20:52;;;;;;;29.27;19.90;;;;;;;-2.06;66.50;101021.19;5106140;28;20097;-73
2022/12/18 11:23:22;;;;;;;31.52;18.90;;;;;;;-2.08;67.02;101019.38;5106623;28;20052;-73